Reno, NV

8:01 AM PST on December 05, 2016 (GMT -0800)
UNR Campus, LMR Roof | | Change Station

Elev 4570 ft 39.54 °N, 119.81 °W | Updated 1 minute ago

Mostly Cloudy
Mostly Cloudy
34.7 °F
Feels Like 35 °F
N
1.0
Wind Variable Wind from NNW
Gusts 0.0 mph

Today
High -- | Low -- °F
--% Chance of Precip.
Yesterday
High -- | Low -- °F
Precip. -- in
Pressure 30.06 in
Visibility 10.0 miles
Clouds Few 15000 ft
Mostly Cloudy 22000 ft
Windchill 35 °F
Dew Point 25 °F
Humidity 66%
Rainfall 0.00 in
Snow Depth Not available.
7:04 AM 4:35 PM
Waxing Crescent, 32% visible
METAR KRNO 051555Z 00000KT 10SM FEW150 BKN220 M02/M07 A3006 RMK AO2 SLP177 T10171067 $
Pressure 30.06 in
Visibility 10.0 miles
Clouds Few 15000 ft
Mostly Cloudy 22000 ft
Windchill 35 °F
Dew Point 25 °F
Humidity 66%
Rainfall 0.00 in
Snow Depth Not available.
7:04 AM 4:35 PM
Waxing Crescent, 32% visible
METAR KRNO 051555Z 00000KT 10SM FEW150 BKN220 M02/M07 A3006 RMK AO2 SLP177 T10171067 $

10-Day Weather Forecast

Almanac

Astronomy

Dec. 05, 2016 Rise Set
Actual Time
Civil Twilight
Nautical Twilight
Astronomical Twilight
Moon
Length of Visible Light
Length of Day
Tomorrow will be .
, % of the Moon is Illuminated

Today's Extremes

State Highs State Lows

Community

WunderPhotos

Upload Photos

1,955,794 photos uploaded!

WunderBlog® & News

Nearby

Air Quality

  Air Quality AQ Index Pollutant
Not available.

Snow Depth

Station Depth Elevation

Earthquake Activity

City Distance Mag. Time & Date
Minimum magnitude displayed is 2.5.

Coastal Water Temperatures

Place Temperature

Stations

Nearby Weather Stations

Station Location Temp. Windchill Dew Point Humidity Wind Precip. Elev Updated Type
                   

Watches & Warnings

There are currently no watches in effect.